メインページ
METAR-TAF:

METAR-TAF

空港 :

エマーム・ホメイニー国際空港

テヘラン, イラン

緯度: 35-24-58N, 経度: 51-09-08E, 海抜: 1007m

現時点の気象観測

当レポートは24分前の18:00(UTC)に作成
無風
気温 6°C
湿度 61%
気圧 1026 hPa
視程10km以上
高度4000ftの雲はほとんどない
高度10000ftの雲は散在している
高度20000ftの千切れ雲あり

METAR: OIIE 171800Z 00000KT 9999 FEW040 SCT100 BKN200 06/M01 Q1026

時間: 21:54 (18:24 UTC)

予報

当レポートは6時間54分前の11:30(UTC)に作成
予報は17日の 12時(UTC)から 18日の 18時(UTC)まで有効
西/北西の風 12kt
視程: 8000m
高度2500ftの雲はほとんどない
高度9000ftの千切れ雲あり
17日の 12時(UTC)から 17日の 15時(UTC)まで一時的に
視程: 5000m
高度2500ftの雲はほとんどない, 積乱雲.
高度3000ftの雲は散在している
高度8000ftの曇り
17日の 23時(UTC)から 18日の 06時(UTC)まで一時的に
視程: 3000m
高度2000ftの千切れ雲あり
高度2500ftの雲はほとんどない, 積乱雲.
高度8000ftの曇り

TAF: OIIE 171130Z 1712/1818 30012KT 8000 FEW025 BKN090 TEMPO 1712/1715 5000 RA FEW025CB SCT030 OVC080 TEMPO 1723/1806 3000 SN/RA BR BKN020 FEW025CB OVC080

4,000以上の空港の気象観測と天気予報(METAR報とTAF報)

利用可能な観測所は地図上に黄色い丸と赤い丸で示す。

丸の上にカーソルを重ねると観測所名を参照できる。

次にクリックすると気象観測と天気予報を参照できる。

マップの切り替え:黒色「×」印の緑ボタンをクリックして拡大、「-」印の緑ボタンをクリックして縮小、緑色の三角印をクリックして隣りの地図に切り替え


METAR-TAF: